sensor_id;sensor_type;location;lat;lon;timestamp;pressure;altitude;pressure_sealevel;temperature;humidity
46638;BME280;32365;46.938;7.390;2023-05-17T12:04:26;95591.38;;;12.08;52.19
46638;BME280;32365;46.938;7.390;2023-05-17T12:06:53;95597.38;;;12.55;52.03
46638;BME280;32365;46.938;7.390;2023-05-17T12:09:21;95594.63;;;12.61;51.48
46638;BME280;32365;46.938;7.390;2023-05-17T12:11:48;95588.03;;;13.05;50.92
46638;BME280;32365;46.938;7.390;2023-05-17T12:14:15;95598.75;;;12.74;51.71
46638;BME280;32365;46.938;7.390;2023-05-17T12:16:43;95596.69;;;12.01;52.84
46638;BME280;32365;46.938;7.390;2023-05-17T12:19:16;95598.34;;;12.37;51.68
46638;BME280;32365;46.938;7.390;2023-05-17T12:21:44;95589.66;;;12.60;51.96
46638;BME280;32365;46.938;7.390;2023-05-17T12:24:11;95583.66;;;13.28;51.21
46638;BME280;32365;46.938;7.390;2023-05-17T12:26:41;95597.63;;;14.05;49.15
46638;BME280;32365;46.938;7.390;2023-05-17T12:29:08;95580.13;;;13.17;51.23
46638;BME280;32365;46.938;7.390;2023-05-17T12:31:38;95595.31;;;12.57;51.72
46638;BME280;32365;46.938;7.390;2023-05-17T12:34:05;95594.13;;;13.33;49.99
46638;BME280;32365;46.938;7.390;2023-05-17T12:36:33;95585.41;;;13.61;47.29
46638;BME280;32365;46.938;7.390;2023-05-17T12:39:03;95588.00;;;13.22;49.33
46638;BME280;32365;46.938;7.390;2023-05-17T12:41:33;95593.84;;;12.03;52.03
46638;BME280;32365;46.938;7.390;2023-05-17T12:43:59;95600.53;;;11.87;52.59
46638;BME280;32365;46.938;7.390;2023-05-17T12:46:27;95593.22;;;11.84;52.11
46638;BME280;32365;46.938;7.390;2023-05-17T12:48:54;95591.16;;;12.56;49.58
46638;BME280;32365;46.938;7.390;2023-05-17T12:51:21;95589.78;;;12.36;48.45
46638;BME280;32365;46.938;7.390;2023-05-17T12:53:49;95593.72;;;12.10;49.19
46638;BME280;32365;46.938;7.390;2023-05-17T12:56:19;95592.09;;;12.50;51.88
46638;BME280;32365;46.938;7.390;2023-05-17T12:59:04;95585.34;;;12.49;51.53
46638;BME280;32365;46.938;7.390;2023-05-17T13:01:32;95588.44;;;12.05;51.45
46638;BME280;32365;46.938;7.390;2023-05-17T13:03:59;95597.25;;;12.04;50.82
46638;BME280;32365;46.938;7.390;2023-05-17T13:06:26;95582.44;;;12.79;51.76
46638;BME280;32365;46.938;7.390;2023-05-17T13:08:58;95585.59;;;12.18;51.81
46638;BME280;32365;46.938;7.390;2023-05-17T13:11:26;95587.13;;;12.02;51.64
46638;BME280;32365;46.938;7.390;2023-05-17T13:13:53;95595.03;;;12.87;50.70
46638;BME280;32365;46.938;7.390;2023-05-17T13:16:27;95578.47;;;13.28;49.32
46638;BME280;32365;46.938;7.390;2023-05-17T13:18:54;95581.72;;;13.57;47.09
46638;BME280;32365;46.938;7.390;2023-05-17T13:21:20;95586.44;;;13.04;49.42
46638;BME280;32365;46.938;7.390;2023-05-17T13:23:48;95580.28;;;13.10;47.54
46638;BME280;32365;46.938;7.390;2023-05-17T13:26:15;95584.84;;;13.59;46.71
46638;BME280;32365;46.938;7.390;2023-05-17T13:28:44;95578.47;;;14.16;46.24
46638;BME280;32365;46.938;7.390;2023-05-17T13:31:10;95573.38;;;12.99;48.10
46638;BME280;32365;46.938;7.390;2023-05-17T13:33:37;95564.97;;;12.74;51.62
46638;BME280;32365;46.938;7.390;2023-05-17T13:36:04;95571.13;;;13.24;49.08
46638;BME280;32365;46.938;7.390;2023-05-17T13:38:31;95572.00;;;14.74;43.66
46638;BME280;32365;46.938;7.390;2023-05-17T13:40:57;95562.97;;;14.54;45.43
46638;BME280;32365;46.938;7.390;2023-05-17T13:43:24;95569.09;;;14.15;46.59
46638;BME280;32365;46.938;7.390;2023-05-17T13:45:52;95565.56;;;14.27;45.86
46638;BME280;32365;46.938;7.390;2023-05-17T13:48:23;95554.81;;;13.29;44.79
46638;BME280;32365;46.938;7.390;2023-05-17T13:50:49;95545.25;;;13.74;47.29
46638;BME280;32365;46.938;7.390;2023-05-17T13:53:16;95554.00;;;13.90;45.84
46638;BME280;32365;46.938;7.390;2023-05-17T13:55:43;95551.16;;;13.08;46.86
46638;BME280;32365;46.938;7.390;2023-05-17T13:58:09;95547.91;;;13.79;46.93
46638;BME280;32365;46.938;7.390;2023-05-17T14:00:36;95547.63;;;14.63;46.39
46638;BME280;32365;46.938;7.390;2023-05-17T14:03:06;95548.81;;;14.77;46.21
46638;BME280;32365;46.938;7.390;2023-05-17T14:05:33;95558.06;;;14.96;44.91
46638;BME280;32365;46.938;7.390;2023-05-17T14:08:00;95544.09;;;15.12;46.22
46638;BME280;32365;46.938;7.390;2023-05-17T14:10:27;95551.22;;;14.24;45.29
46638;BME280;32365;46.938;7.390;2023-05-17T14:12:53;95552.44;;;13.67;47.45
46638;BME280;32365;46.938;7.390;2023-05-17T14:15:20;95547.81;;;13.47;48.20
46638;BME280;32365;46.938;7.390;2023-05-17T14:17:48;95544.72;;;13.99;47.78
46638;BME280;32365;46.938;7.390;2023-05-17T14:20:16;95544.03;;;14.37;45.44
46638;BME280;32365;46.938;7.390;2023-05-17T14:22:42;95555.25;;;15.02;45.03
46638;BME280;32365;46.938;7.390;2023-05-17T14:25:09;95544.84;;;14.37;44.79
46638;BME280;32365;46.938;7.390;2023-05-17T14:27:36;95547.00;;;14.51;45.14
46638;BME280;32365;46.938;7.390;2023-05-17T14:30:03;95550.19;;;13.98;44.87
46638;BME280;32365;46.938;7.390;2023-05-17T14:32:30;95547.00;;;13.68;44.64
46638;BME280;32365;46.938;7.390;2023-05-17T14:34:56;95544.44;;;14.23;45.06
46638;BME280;32365;46.938;7.390;2023-05-17T14:37:24;95540.97;;;14.72;44.93
46638;BME280;32365;46.938;7.390;2023-05-17T14:39:51;95533.72;;;13.92;46.42
46638;BME280;32365;46.938;7.390;2023-05-17T14:42:17;95532.41;;;13.45;47.51
46638;BME280;32365;46.938;7.390;2023-05-17T14:44:43;95545.31;;;13.18;47.54
46638;BME280;32365;46.938;7.390;2023-05-17T14:47:10;95533.88;;;12.62;48.85
46638;BME280;32365;46.938;7.390;2023-05-17T14:49:37;95540.63;;;12.29;49.96
46638;BME280;32365;46.938;7.390;2023-05-17T14:52:03;95535.19;;;12.82;49.07
46638;BME280;32365;46.938;7.390;2023-05-17T14:54:31;95544.88;;;12.70;49.54
46638;BME280;32365;46.938;7.390;2023-05-17T14:56:59;95536.47;;;12.80;49.44
46638;BME280;32365;46.938;7.390;2023-05-17T14:59:26;95534.50;;;12.87;50.37
46638;BME280;32365;46.938;7.390;2023-05-17T15:01:52;95538.91;;;13.26;50.77
46638;BME280;32365;46.938;7.390;2023-05-17T15:04:19;95533.88;;;12.62;50.53
46638;BME280;32365;46.938;7.390;2023-05-17T15:06:45;95542.38;;;12.75;49.91
46638;BME280;32365;46.938;7.390;2023-05-17T15:09:12;95532.38;;;12.84;50.99
46638;BME280;32365;46.938;7.390;2023-05-17T15:11:43;95536.00;;;12.83;50.65
46638;BME280;32365;46.938;7.390;2023-05-17T15:14:10;95545.03;;;12.63;51.18
46638;BME280;32365;46.938;7.390;2023-05-17T15:16:37;95549.19;;;12.30;49.82
46638;BME280;32365;46.938;7.390;2023-05-17T15:19:03;95546.78;;;12.11;50.84
46638;BME280;32365;46.938;7.390;2023-05-17T15:21:30;95546.31;;;11.85;51.75
46638;BME280;32365;46.938;7.390;2023-05-17T15:23:57;95544.28;;;11.88;53.60
46638;BME280;32365;46.938;7.390;2023-05-17T15:26:23;95545.59;;;11.90;52.14
46638;BME280;32365;46.938;7.390;2023-05-17T15:28:51;95532.03;;;11.71;53.89
46638;BME280;32365;46.938;7.390;2023-05-17T15:31:17;95539.00;;;12.11;53.16
46638;BME280;32365;46.938;7.390;2023-05-17T15:33:44;95549.22;;;12.01;52.08
46638;BME280;32365;46.938;7.390;2023-05-17T15:36:11;95534.84;;;12.10;53.07
46638;BME280;32365;46.938;7.390;2023-05-17T15:38:39;95544.00;;;12.47;51.48
46638;BME280;32365;46.938;7.390;2023-05-17T15:41:08;95535.13;;;12.43;52.79
46638;BME280;32365;46.938;7.390;2023-05-17T15:43:35;95531.25;;;12.45;51.60
46638;BME280;32365;46.938;7.390;2023-05-17T15:46:03;95540.97;;;12.21;52.81
46638;BME280;32365;46.938;7.390;2023-05-17T15:48:30;95549.84;;;12.71;51.87
46638;BME280;32365;46.938;7.390;2023-05-17T15:50:58;95538.06;;;12.18;50.78
46638;BME280;32365;46.938;7.390;2023-05-17T15:53:26;95540.44;;;12.19;52.93
46638;BME280;32365;46.938;7.390;2023-05-17T15:55:53;95547.56;;;12.41;51.78
46638;BME280;32365;46.938;7.390;2023-05-17T15:58:21;95541.38;;;12.13;51.78
46638;BME280;32365;46.938;7.390;2023-05-17T16:00:48;95540.66;;;12.18;51.79
46638;BME280;32365;46.938;7.390;2023-05-17T16:03:16;95546.56;;;12.13;51.90
46638;BME280;32365;46.938;7.390;2023-05-17T16:05:43;95547.38;;;11.61;53.17
46638;BME280;32365;46.938;7.390;2023-05-17T16:08:10;95542.66;;;11.58;54.05
46638;BME280;32365;46.938;7.390;2023-05-17T16:10:37;95546.56;;;11.72;53.77
46638;BME280;32365;46.938;7.390;2023-05-17T16:13:04;95549.53;;;11.93;54.24
46638;BME280;32365;46.938;7.390;2023-05-17T16:15:31;95544.41;;;11.81;54.23
46638;BME280;32365;46.938;7.390;2023-05-17T16:17:58;95540.56;;;11.83;53.62
46638;BME280;32365;46.938;7.390;2023-05-17T16:20:26;95543.84;;;11.79;55.46
46638;BME280;32365;46.938;7.390;2023-05-17T16:22:53;95546.31;;;11.74;52.87
46638;BME280;32365;46.938;7.390;2023-05-17T16:25:21;95544.56;;;11.62;52.36
46638;BME280;32365;46.938;7.390;2023-05-17T16:27:48;95546.56;;;11.72;52.04
46638;BME280;32365;46.938;7.390;2023-05-17T16:30:16;95536.69;;;11.86;52.83
46638;BME280;32365;46.938;7.390;2023-05-17T16:32:43;95542.31;;;11.66;52.56
46638;BME280;32365;46.938;7.390;2023-05-17T16:35:11;95536.38;;;11.82;52.52
46638;BME280;32365;46.938;7.390;2023-05-17T16:37:39;95534.88;;;11.98;53.43
46638;BME280;32365;46.938;7.390;2023-05-17T16:40:08;95534.81;;;11.81;51.52
46638;BME280;32365;46.938;7.390;2023-05-17T16:42:34;95535.47;;;11.89;51.27
46638;BME280;32365;46.938;7.390;2023-05-17T16:45:01;95541.66;;;11.99;51.48
46638;BME280;32365;46.938;7.390;2023-05-17T16:47:28;95543.94;;;11.84;52.52
46638;BME280;32365;46.938;7.390;2023-05-17T16:49:54;95543.38;;;11.82;51.36
46638;BME280;32365;46.938;7.390;2023-05-17T16:52:21;95533.16;;;11.63;51.11
46638;BME280;32365;46.938;7.390;2023-05-17T16:54:49;95532.53;;;11.44;52.01
46638;BME280;32365;46.938;7.390;2023-05-17T16:57:16;95539.91;;;11.35;51.98
46638;BME280;32365;46.938;7.390;2023-05-17T16:59:42;95523.84;;;11.50;53.14
46638;BME280;32365;46.938;7.390;2023-05-17T17:02:09;95527.91;;;11.46;53.69
46638;BME280;32365;46.938;7.390;2023-05-17T17:04:36;95526.22;;;11.52;54.43
46638;BME280;32365;46.938;7.390;2023-05-17T17:07:02;95525.78;;;11.43;53.21
46638;BME280;32365;46.938;7.390;2023-05-17T17:09:29;95526.44;;;11.50;52.62
46638;BME280;32365;46.938;7.390;2023-05-17T17:11:56;95532.00;;;11.42;52.89
46638;BME280;32365;46.938;7.390;2023-05-17T17:14:23;95524.47;;;11.29;53.27
46638;BME280;32365;46.938;7.390;2023-05-17T17:16:50;95522.28;;;11.37;52.98
46638;BME280;32365;46.938;7.390;2023-05-17T17:19:16;95525.34;;;11.34;53.60
46638;BME280;32365;46.938;7.390;2023-05-17T17:21:43;95518.69;;;11.38;54.06
46638;BME280;32365;46.938;7.390;2023-05-17T17:24:09;95516.44;;;11.30;53.37
46638;BME280;32365;46.938;7.390;2023-05-17T17:26:36;95528.28;;;11.26;54.41
46638;BME280;32365;46.938;7.390;2023-05-17T17:29:04;95519.41;;;11.22;53.73
46638;BME280;32365;46.938;7.390;2023-05-17T17:31:32;95532.44;;;11.39;54.56
46638;BME280;32365;46.938;7.390;2023-05-17T17:33:58;95524.81;;;11.20;54.40
46638;BME280;32365;46.938;7.390;2023-05-17T17:36:25;95530.53;;;11.34;53.17
46638;BME280;32365;46.938;7.390;2023-05-17T17:38:51;95522.00;;;11.22;54.45
46638;BME280;32365;46.938;7.390;2023-05-17T17:41:18;95531.13;;;11.24;52.79
46638;BME280;32365;46.938;7.390;2023-05-17T17:43:45;95533.81;;;11.18;52.23
46638;BME280;32365;46.938;7.390;2023-05-17T17:46:14;95540.81;;;11.17;53.06
46638;BME280;32365;46.938;7.390;2023-05-17T17:48:41;95531.69;;;11.15;53.35
46638;BME280;32365;46.938;7.390;2023-05-17T17:51:08;95530.00;;;11.08;52.81
46638;BME280;32365;46.938;7.390;2023-05-17T17:53:34;95534.19;;;11.09;53.93
46638;BME280;32365;46.938;7.390;2023-05-17T17:56:00;95526.28;;;11.16;54.04
46638;BME280;32365;46.938;7.390;2023-05-17T17:58:27;95530.34;;;11.12;54.04
46638;BME280;32365;46.938;7.390;2023-05-17T18:00:54;95532.94;;;11.00;54.53
46638;BME280;32365;46.938;7.390;2023-05-17T18:03:22;95545.09;;;11.00;54.45
46638;BME280;32365;46.938;7.390;2023-05-17T18:05:49;95545.09;;;11.00;55.45
46638;BME280;32365;46.938;7.390;2023-05-17T18:08:15;95545.88;;;10.88;54.25
46638;BME280;32365;46.938;7.390;2023-05-17T18:10:42;95544.63;;;10.91;55.55
46638;BME280;32365;46.938;7.390;2023-05-17T18:13:08;95539.94;;;10.88;55.29
46638;BME280;32365;46.938;7.390;2023-05-17T18:15:35;95549.81;;;10.79;55.32
46638;BME280;32365;46.938;7.390;2023-05-17T18:18:01;95544.41;;;10.81;55.55
46638;BME280;32365;46.938;7.390;2023-05-17T18:20:29;95546.66;;;10.77;55.30
46638;BME280;32365;46.938;7.390;2023-05-17T18:22:56;95539.44;;;10.67;56.33
46638;BME280;32365;46.938;7.390;2023-05-17T18:25:22;95541.94;;;10.86;56.36
46638;BME280;32365;46.938;7.390;2023-05-17T18:27:49;95549.50;;;10.75;55.64
46638;BME280;32365;46.938;7.390;2023-05-17T18:30:16;95540.16;;;10.74;56.53
46638;BME280;32365;46.938;7.390;2023-05-17T18:32:43;95539.00;;;10.70;56.53
46638;BME280;32365;46.938;7.390;2023-05-17T18:35:10;95541.84;;;10.69;55.71
46638;BME280;32365;46.938;7.390;2023-05-17T18:37:38;95537.31;;;10.76;57.74
46638;BME280;32365;46.938;7.390;2023-05-17T18:40:05;95538.34;;;10.63;56.57
46638;BME280;32365;46.938;7.390;2023-05-17T18:42:32;95546.06;;;10.51;57.55
46638;BME280;32365;46.938;7.390;2023-05-17T18:44:58;95545.81;;;10.41;56.54
46638;BME280;32365;46.938;7.390;2023-05-17T18:47:25;95538.53;;;10.50;58.39
46638;BME280;32365;46.938;7.390;2023-05-17T18:49:52;95544.81;;;10.42;56.79
46638;BME280;32365;46.938;7.390;2023-05-17T18:52:19;95538.81;;;10.29;58.65
46638;BME280;32365;46.938;7.390;2023-05-17T18:54:46;95542.41;;;10.28;57.46
46638;BME280;32365;46.938;7.390;2023-05-17T18:57:13;95539.38;;;10.31;57.75
46638;BME280;32365;46.938;7.390;2023-05-17T18:59:39;95545.81;;;10.41;57.41
46638;BME280;32365;46.938;7.390;2023-05-17T19:02:06;95546.47;;;10.36;56.40
46638;BME280;32365;46.938;7.390;2023-05-17T19:04:33;95549.00;;;10.24;56.41
46638;BME280;32365;46.938;7.390;2023-05-17T19:07:00;95552.59;;;10.23;58.24
46638;BME280;32365;46.938;7.390;2023-05-17T19:09:27;95552.25;;;10.20;57.85
46638;BME280;32365;46.938;7.390;2023-05-17T19:11:55;95549.56;;;10.14;57.15
46638;BME280;32365;46.938;7.390;2023-05-17T19:14:22;95553.72;;;10.15;57.95
46638;BME280;32365;46.938;7.390;2023-05-17T19:16:48;95555.66;;;10.20;57.69
46638;BME280;32365;46.938;7.390;2023-05-17T19:19:15;95554.38;;;10.11;57.89
46638;BME280;32365;46.938;7.390;2023-05-17T19:21:42;95548.84;;;10.07;58.89
46638;BME280;32365;46.938;7.390;2023-05-17T19:24:08;95557.53;;;10.13;58.17
46638;BME280;32365;46.938;7.390;2023-05-17T19:26:35;95561.84;;;10.19;57.57
46638;BME280;32365;46.938;7.390;2023-05-17T19:29:03;95559.59;;;10.23;58.03
46638;BME280;32365;46.938;7.390;2023-05-17T19:31:30;95570.69;;;10.11;59.65
46638;BME280;32365;46.938;7.390;2023-05-17T19:33:56;95565.09;;;10.14;57.90
46638;BME280;32365;46.938;7.390;2023-05-17T19:36:25;95564.19;;;10.21;58.72
46638;BME280;32365;46.938;7.390;2023-05-17T19:38:52;95564.63;;;10.17;58.23
46638;BME280;32365;46.938;7.390;2023-05-17T19:41:19;95568.22;;;10.16;57.95
46638;BME280;32365;46.938;7.390;2023-05-17T19:43:46;95566.28;;;10.12;58.34
46638;BME280;32365;46.938;7.390;2023-05-17T19:46:13;95567.97;;;10.06;59.10
46638;BME280;32365;46.938;7.390;2023-05-17T19:48:40;95564.94;;;10.09;58.84
46638;BME280;32365;46.938;7.390;2023-05-17T19:51:06;95570.91;;;10.10;57.69
46638;BME280;32365;46.938;7.390;2023-05-17T19:53:33;95577.66;;;10.11;58.81
46638;BME280;32365;46.938;7.390;2023-05-17T19:55:59;95565.84;;;10.03;58.82
46638;BME280;32365;46.938;7.390;2023-05-17T19:58:29;95575.25;;;9.97;59.25
46638;BME280;32365;46.938;7.390;2023-05-17T20:00:56;95572.66;;;9.97;59.34
46638;BME280;32365;46.938;7.390;2023-05-17T20:03:24;95572.44;;;9.99;58.44
46638;BME280;32365;46.938;7.390;2023-05-17T20:05:51;95572.09;;;9.95;58.72
46638;BME280;32365;46.938;7.390;2023-05-17T20:08:19;95574.09;;;9.93;58.60
46638;BME280;32365;46.938;7.390;2023-05-17T20:10:45;95573.53;;;9.91;60.10
46638;BME280;32365;46.938;7.390;2023-05-17T20:13:12;95573.84;;;9.83;60.75
46638;BME280;32365;46.938;7.390;2023-05-17T20:15:38;95578.94;;;9.90;58.20
46638;BME280;32365;46.938;7.390;2023-05-17T20:18:05;95576.00;;;9.86;59.31
46638;BME280;32365;46.938;7.390;2023-05-17T20:20:34;95577.69;;;9.92;60.77
46638;BME280;32365;46.938;7.390;2023-05-17T20:23:01;95574.59;;;9.83;60.95
46638;BME280;32365;46.938;7.390;2023-05-17T20:25:27;95580.00;;;9.82;60.97
46638;BME280;32365;46.938;7.390;2023-05-17T20:27:54;95577.19;;;9.83;58.90
46638;BME280;32365;46.938;7.390;2023-05-17T20:30:20;95585.75;;;9.84;59.68
46638;BME280;32365;46.938;7.390;2023-05-17T20:32:47;95585.69;;;9.72;61.05
46638;BME280;32365;46.938;7.390;2023-05-17T20:35:13;95579.94;;;9.70;59.34
46638;BME280;32365;46.938;7.390;2023-05-17T20:37:41;95579.38;;;9.68;61.04
46638;BME280;32365;46.938;7.390;2023-05-17T20:40:08;95583.41;;;9.64;60.98
46638;BME280;32365;46.938;7.390;2023-05-17T20:42:35;95582.75;;;9.68;63.34
46638;BME280;32365;46.938;7.390;2023-05-17T20:45:05;95582.97;;;9.48;63.06
46638;BME280;32365;46.938;7.390;2023-05-17T20:47:33;95585.13;;;9.51;63.06
46638;BME280;32365;46.938;7.390;2023-05-17T20:50:01;95578.78;;;9.29;64.13
46638;BME280;32365;46.938;7.390;2023-05-17T20:52:28;95583.91;;;9.35;64.03
46638;BME280;32365;46.938;7.390;2023-05-17T20:54:56;95582.38;;;9.28;65.04
46638;BME280;32365;46.938;7.390;2023-05-17T20:57:22;95584.59;;;9.24;64.73
46638;BME280;32365;46.938;7.390;2023-05-17T20:59:49;95576.22;;;9.29;66.02
46638;BME280;32365;46.938;7.390;2023-05-17T21:02:16;95575.22;;;9.30;65.42
46638;BME280;32365;46.938;7.390;2023-05-17T21:04:43;95574.97;;;9.31;65.51
46638;BME280;32365;46.938;7.390;2023-05-17T21:07:09;95572.47;;;9.24;66.68
46638;BME280;32365;46.938;7.390;2023-05-17T21:09:36;95578.56;;;9.30;67.56
46638;BME280;32365;46.938;7.390;2023-05-17T21:12:04;95576.69;;;9.19;67.52
46638;BME280;32365;46.938;7.390;2023-05-17T21:14:31;95573.03;;;9.08;68.46
46638;BME280;32365;46.938;7.390;2023-05-17T21:16:57;95578.06;;;9.21;69.06
46638;BME280;32365;46.938;7.390;2023-05-17T21:19:26;95573.97;;;9.32;67.97
46638;BME280;32365;46.938;7.390;2023-05-17T21:21:52;95578.63;;;9.23;68.43
46638;BME280;32365;46.938;7.390;2023-05-17T21:24:19;95575.13;;;9.18;68.86
46638;BME280;32365;46.938;7.390;2023-05-17T21:26:45;95573.59;;;9.10;69.73
46638;BME280;32365;46.938;7.390;2023-05-17T21:29:14;95576.34;;;9.15;69.35
46638;BME280;32365;46.938;7.390;2023-05-17T21:31:40;95574.47;;;9.22;69.73
46638;BME280;32365;46.938;7.390;2023-05-17T21:34:07;95577.41;;;9.07;69.59
46638;BME280;32365;46.938;7.390;2023-05-17T21:36:33;95574.91;;;9.19;70.39
46638;BME280;32365;46.938;7.390;2023-05-17T21:39:00;95582.56;;;9.07;70.07
46638;BME280;32365;46.938;7.390;2023-05-17T21:41:27;95572.00;;;9.09;70.19
46638;BME280;32365;46.938;7.390;2023-05-17T21:43:53;95573.28;;;9.00;71.32
46638;BME280;32365;46.938;7.390;2023-05-17T21:46:21;95569.66;;;9.07;69.90
46638;BME280;32365;46.938;7.390;2023-05-17T21:48:47;95570.34;;;8.96;70.51
46638;BME280;32365;46.938;7.390;2023-05-17T21:51:14;95567.66;;;9.09;71.30
46638;BME280;32365;46.938;7.390;2023-05-17T21:53:41;95567.34;;;8.99;70.98
46638;BME280;32365;46.938;7.390;2023-05-17T21:56:07;95568.19;;;8.93;71.64
46638;BME280;32365;46.938;7.390;2023-05-17T21:58:33;95563.19;;;8.98;71.65
46638;BME280;32365;46.938;7.390;2023-05-17T22:01:00;95560.06;;;8.89;72.14
46638;BME280;32365;46.938;7.390;2023-05-17T22:03:28;95573.03;;;8.83;72.22
46638;BME280;32365;46.938;7.390;2023-05-17T22:05:54;95570.34;;;8.96;71.48
46638;BME280;32365;46.938;7.390;2023-05-17T22:08:21;95563.13;;;9.05;71.27
